Portada
METAR-TAF:

METAR-TAF

Aeropuertos :

Saint Louis, Senegal

latitud: 16-03N, longitud: 016-27W, altitud: 4 m

Observación

El informe se hizo hace 1 hora y 14 minutos, a las 18:00 UTC
Viento 8 kt del noroeste
Temperatura 28°C
Humedad 70%
Presión 1008 hPa
Visibilidad 10 km o más
sin nubes por debajo de 1500 m y sin presencia de cumulonimbus.

METAR: GOSS 211800Z 32008KT CAVOK 28/22 Q1008

Hora: 19:14 (19:14 UTC)

Pronóstico

El informe se hizo hace 1 hora y 44 minutos, a las 17:30 UTC
Pronóstico válido del 21 a las 18 UTC al 22 a las 18 UTC
Viento 8 kt del oeste
Visibilidad 10 km o más
Nubes dispersas a una altura de 1400 ft

TAF: GOSS 211730Z 2118/2218 28008KT 9999 SCT014

Observaciones y pronósticos meteorológicos de más de 4000 aeropuertos (mensajes METAR y TAF).

Los puntos amarillos y rojos representan las estaciones disponibles.

Ponga el ratón en el punto deseado para ver el nombre de la estación.

Haga clic para ver las observaciones y los pronósticos meteorológicos.

Para cambiar el mapa : haga clic en los botones verdes con una cruz de color negro para hacer un zoom, en el botón verde con un guión para alejar o en las flechas verdes para mapas adyacentes.


METAR-TAF: